createdAt,value
2023-07-08T00:00:49.233Z,19.10
2023-07-08T00:03:19.023Z,19.10
2023-07-08T00:05:48.107Z,19.10
2023-07-08T00:08:16.570Z,19.10
2023-07-08T00:10:43.948Z,19.00
2023-07-08T00:13:12.019Z,18.90
2023-07-08T00:15:40.920Z,18.90
2023-07-08T00:18:14.599Z,18.90
2023-07-08T00:20:47.987Z,18.70
2023-07-08T00:23:23.163Z,18.60
2023-07-08T00:25:51.168Z,18.40
2023-07-08T00:28:22.735Z,18.30
2023-07-08T00:30:50.995Z,18.10
2023-07-08T00:33:18.389Z,18.10
2023-07-08T00:35:47.330Z,18.10
2023-07-08T00:38:29.201Z,18.20
2023-07-08T00:41:18.006Z,18.20
2023-07-08T00:43:53.632Z,18.20
2023-07-08T00:46:39.708Z,18.10
2023-07-08T00:49:19.381Z,18.00
2023-07-08T00:51:47.097Z,18.00
2023-07-08T00:54:15.544Z,17.90
2023-07-08T00:56:59.324Z,18.00
2023-07-08T00:59:35.729Z,18.00
2023-07-08T01:02:08.857Z,17.80
2023-07-08T01:04:45.356Z,17.60
2023-07-08T01:07:13.207Z,17.50
2023-07-08T01:09:44.219Z,17.30
2023-07-08T01:12:18.693Z,17.20
2023-07-08T01:14:49.547Z,17.20
2023-07-08T01:17:19.841Z,17.20
2023-07-08T01:19:50.360Z,17.20
2023-07-08T01:22:18.687Z,17.20
2023-07-08T01:24:54.987Z,17.20
2023-07-08T01:27:22.958Z,17.30
2023-07-08T01:29:52.212Z,17.50
2023-07-08T01:32:20.414Z,17.40
2023-07-08T01:35:03.244Z,17.20
2023-07-08T01:37:43.847Z,17.00
2023-07-08T01:40:20.207Z,16.60
2023-07-08T01:42:47.515Z,16.70
2023-07-08T01:45:16.987Z,16.60
2023-07-08T01:47:50.666Z,16.70
2023-07-08T01:50:19.664Z,16.80
2023-07-08T01:52:49.427Z,16.80
2023-07-08T01:55:21.904Z,16.80
2023-07-08T01:57:49.161Z,16.70
2023-07-08T02:00:16.644Z,16.60
2023-07-08T02:02:44.375Z,16.60
2023-07-08T02:07:39.354Z,16.50
2023-07-08T02:10:07.248Z,16.50
2023-07-08T02:12:34.825Z,16.40
2023-07-08T02:15:02.809Z,16.30
2023-07-08T02:17:30.370Z,16.10
2023-07-08T02:19:57.943Z,16.10
2023-07-08T02:22:25.217Z,16.10
2023-07-08T02:24:52.477Z,16.10
2023-07-08T02:27:20.797Z,16.10
2023-07-08T02:29:48.351Z,16.10
2023-07-08T02:32:15.589Z,16.10
2023-07-08T02:34:43.831Z,16.10
2023-07-08T02:37:14.380Z,16.20
2023-07-08T02:39:41.948Z,16.30
2023-07-08T02:42:10.547Z,16.10
2023-07-08T02:44:38.528Z,16.00
2023-07-08T02:47:08.307Z,15.90
2023-07-08T02:49:36.639Z,15.80
2023-07-08T02:52:04.341Z,15.70
2023-07-08T02:54:31.619Z,15.70
2023-07-08T02:56:59.005Z,15.60
2023-07-08T02:59:28.799Z,15.50
2023-07-08T03:01:56.275Z,15.40
2023-07-08T03:04:26.257Z,15.40
2023-07-08T03:06:55.906Z,15.30
2023-07-08T03:09:24.503Z,15.30
2023-07-08T03:11:51.796Z,15.30
2023-07-08T03:14:19.117Z,15.20
2023-07-08T03:16:46.443Z,15.20
2023-07-08T03:19:16.206Z,15.30
2023-07-08T03:21:44.080Z,15.30
2023-07-08T03:24:13.751Z,15.40
2023-07-08T03:26:46.427Z,15.50
2023-07-08T03:29:19.051Z,15.40
2023-07-08T03:31:48.160Z,15.30
2023-07-08T03:34:17.623Z,15.20
2023-07-08T03:36:49.734Z,15.10
2023-07-08T03:39:23.138Z,15.10
2023-07-08T03:41:51.549Z,15.10
2023-07-08T03:44:20.260Z,15.30
2023-07-08T03:46:50.584Z,15.50
2023-07-08T03:49:23.116Z,15.60
2023-07-08T03:51:54.650Z,15.60
2023-07-08T03:54:25.692Z,15.60
2023-07-08T03:56:55.880Z,15.60
2023-07-08T03:59:25.655Z,15.50
2023-07-08T04:01:55.006Z,15.60
2023-07-08T04:04:22.980Z,15.60
2023-07-08T04:06:51.374Z,15.60
2023-07-08T04:09:18.612Z,15.70
2023-07-08T04:11:45.916Z,15.80
2023-07-08T04:14:13.243Z,15.90
2023-07-08T04:16:46.738Z,15.90
2023-07-08T04:19:15.899Z,16.00
2023-07-08T04:21:45.260Z,16.10
2023-07-08T04:24:14.822Z,16.10
2023-07-08T04:26:42.653Z,16.30
2023-07-08T04:29:17.303Z,16.30
2023-07-08T04:31:45.064Z,16.50
2023-07-08T04:34:12.340Z,16.60
2023-07-08T04:36:39.659Z,16.70
2023-07-08T04:39:08.155Z,16.80
2023-07-08T04:41:42.034Z,16.90
2023-07-08T04:44:13.113Z,17.00
2023-07-08T04:46:52.310Z,17.10
2023-07-08T04:49:20.177Z,17.10
2023-07-08T04:51:47.888Z,17.30
2023-07-08T04:54:15.563Z,17.20
2023-07-08T04:56:48.078Z,17.30
2023-07-08T04:59:20.351Z,17.20
2023-07-08T05:01:49.926Z,17.30
2023-07-08T05:04:20.203Z,17.30
2023-07-08T05:06:48.043Z,17.40
2023-07-08T05:09:17.359Z,17.50
2023-07-08T05:11:45.532Z,17.60
2023-07-08T05:14:13.867Z,17.80
2023-07-08T05:16:41.694Z,18.00
2023-07-08T05:19:09.763Z,18.10
2023-07-08T05:21:37.133Z,18.30
2023-07-08T05:24:06.037Z,18.40
2023-07-08T05:26:34.196Z,18.60
2023-07-08T05:29:01.939Z,18.70
2023-07-08T05:31:45.452Z,18.90
2023-07-08T05:34:16.637Z,19.00
2023-07-08T05:36:44.622Z,19.10
2023-07-08T05:39:11.992Z,19.30
2023-07-08T05:41:39.436Z,19.40
2023-07-08T05:44:06.716Z,19.50
2023-07-08T05:46:34.004Z,19.60
2023-07-08T05:49:02.202Z,19.80
2023-07-08T05:51:29.812Z,19.90
2023-07-08T05:53:57.123Z,20.00
2023-07-08T05:56:24.396Z,20.10
2023-07-08T05:58:51.673Z,20.20
2023-07-08T06:01:19.127Z,20.30
2023-07-08T06:03:46.496Z,20.40
2023-07-08T06:06:13.903Z,20.60
2023-07-08T06:08:42.600Z,20.60
2023-07-08T06:11:09.849Z,20.70
2023-07-08T06:13:37.208Z,20.90
2023-07-08T06:16:05.091Z,21.00
2023-07-08T06:18:32.520Z,21.10
2023-07-08T06:21:00.277Z,21.20
2023-07-08T06:23:27.968Z,21.30
2023-07-08T06:25:55.682Z,21.50
2023-07-08T06:28:23.367Z,21.60
2023-07-08T06:30:51.057Z,21.70
2023-07-08T06:33:18.435Z,21.80
2023-07-08T06:35:45.807Z,21.90
2023-07-08T06:38:13.945Z,22.10
2023-07-08T06:40:41.344Z,22.10
2023-07-08T06:43:08.681Z,22.30
2023-07-08T06:45:42.116Z,22.40
2023-07-08T06:48:09.516Z,22.50
2023-07-08T06:50:37.044Z,22.50
2023-07-08T06:53:04.316Z,22.60
2023-07-08T06:55:31.646Z,22.80
2023-07-08T06:57:58.977Z,22.90
2023-07-08T07:00:26.416Z,23.00
2023-07-08T07:02:53.769Z,23.20
2023-07-08T07:05:23.413Z,23.20
2023-07-08T07:07:51.289Z,23.30
2023-07-08T07:10:18.544Z,23.50
2023-07-08T07:12:46.192Z,23.50
2023-07-08T07:15:13.523Z,23.60
2023-07-08T07:17:40.938Z,23.60
2023-07-08T07:20:09.538Z,23.90
2023-07-08T07:22:37.013Z,24.00
2023-07-08T07:25:05.226Z,24.00
2023-07-08T07:27:32.567Z,24.10
2023-07-08T07:30:00.701Z,24.20
2023-07-08T07:32:30.355Z,24.20
2023-07-08T07:34:58.716Z,24.30
2023-07-08T07:37:26.538Z,24.10
2023-07-08T07:39:53.688Z,24.10
2023-07-08T07:42:21.311Z,24.10
2023-07-08T07:44:48.679Z,24.30
2023-07-08T07:47:16.035Z,24.60
2023-07-08T07:49:43.501Z,24.60
2023-07-08T07:52:12.140Z,24.70
2023-07-08T07:54:40.549Z,25.00
2023-07-08T07:57:07.853Z,25.20
2023-07-08T07:59:35.141Z,25.30
2023-07-08T08:02:02.585Z,25.50
2023-07-08T08:04:29.891Z,25.60
2023-07-08T08:06:57.197Z,25.80
2023-07-08T08:09:24.453Z,26.00
2023-07-08T08:11:53.042Z,26.10
2023-07-08T08:14:20.345Z,26.40
2023-07-08T08:16:47.749Z,26.10
2023-07-08T08:19:15.132Z,26.20
2023-07-08T08:21:42.544Z,26.50
2023-07-08T08:24:09.815Z,26.50
2023-07-08T08:26:37.238Z,26.70
2023-07-08T08:29:04.512Z,26.70
2023-07-08T08:31:35.009Z,26.90
2023-07-08T08:34:02.318Z,27.00
2023-07-08T08:36:29.629Z,27.00
2023-07-08T08:38:58.080Z,27.20
2023-07-08T08:41:33.599Z,27.30
2023-07-08T08:44:03.473Z,27.20
2023-07-08T08:46:51.367Z,27.40
2023-07-08T08:49:44.714Z,27.50
2023-07-08T08:52:12.036Z,27.60
2023-07-08T08:54:40.007Z,27.50
2023-07-08T08:57:29.657Z,27.60
2023-07-08T09:00:00.068Z,27.60
2023-07-08T09:02:54.614Z,27.80
2023-07-08T09:05:22.081Z,28.10
2023-07-08T09:08:04.856Z,28.30
2023-07-08T09:10:47.502Z,28.50
2023-07-08T09:13:38.297Z,28.70
2023-07-08T09:16:20.409Z,28.60
2023-07-08T09:19:00.698Z,28.60
2023-07-08T09:21:34.830Z,28.50
2023-07-08T09:24:09.582Z,28.60
2023-07-08T09:26:37.356Z,28.90
2023-07-08T09:29:09.951Z,29.00
2023-07-08T09:31:40.616Z,29.10
2023-07-08T09:34:14.623Z,29.20
2023-07-08T09:36:44.097Z,29.20
2023-07-08T09:39:17.988Z,29.30
2023-07-08T09:41:47.997Z,29.50
2023-07-08T09:44:31.164Z,29.40
2023-07-08T09:46:59.725Z,29.40
2023-07-08T09:49:35.588Z,29.40
2023-07-08T09:52:05.507Z,29.60
2023-07-08T09:54:33.893Z,29.80
2023-07-08T09:57:12.930Z,29.90
2023-07-08T09:59:48.647Z,30.20
2023-07-08T10:02:53.412Z,30.30
2023-07-08T10:05:23.406Z,30.40
2023-07-08T10:07:55.651Z,30.50
2023-07-08T10:10:40.422Z,30.70
2023-07-08T10:13:22.626Z,30.40
2023-07-08T10:16:26.691Z,30.30
2023-07-08T10:18:54.064Z,30.50
2023-07-08T10:21:41.535Z,30.60
2023-07-08T10:24:43.030Z,30.80
2023-07-08T10:27:26.919Z,30.80
2023-07-08T10:30:05.755Z,30.90
2023-07-08T10:32:54.446Z,30.90
2023-07-08T10:35:41.768Z,30.90
2023-07-08T10:38:31.160Z,31.10
2023-07-08T10:41:06.145Z,31.10
2023-07-08T10:43:59.858Z,31.10
2023-07-08T10:46:49.473Z,31.10
2023-07-08T10:49:28.889Z,31.10
2023-07-08T10:52:32.155Z,31.20
2023-07-08T10:55:22.046Z,31.10
2023-07-08T10:58:43.192Z,31.50
2023-07-08T11:01:34.413Z,31.60
2023-07-08T11:04:19.106Z,31.60
2023-07-08T11:06:55.963Z,31.50
2023-07-08T11:09:37.584Z,31.60
2023-07-08T11:12:18.768Z,31.70
2023-07-08T11:14:57.784Z,32.00
2023-07-08T11:17:38.840Z,32.10
2023-07-08T11:20:24.320Z,32.50
2023-07-08T11:22:59.275Z,32.70
2023-07-08T11:25:28.744Z,32.80
2023-07-08T11:27:58.768Z,32.60
2023-07-08T11:30:30.678Z,32.70
2023-07-08T11:33:05.548Z,32.90
2023-07-08T11:35:52.110Z,32.80
2023-07-08T11:38:21.914Z,32.80
2023-07-08T11:40:56.333Z,33.00
2023-07-08T11:43:27.365Z,33.00
2023-07-08T11:45:58.467Z,33.10
2023-07-08T11:48:32.896Z,33.30
2023-07-08T11:51:06.583Z,33.20
2023-07-08T11:53:48.715Z,33.50
2023-07-08T11:56:24.907Z,33.40
2023-07-08T11:59:21.091Z,33.60
2023-07-08T12:01:51.774Z,33.80
2023-07-08T12:04:27.097Z,34.00
2023-07-08T12:07:12.228Z,34.00
2023-07-08T12:09:48.363Z,34.20
2023-07-08T12:12:25.667Z,34.40
2023-07-08T12:15:03.200Z,34.30
2023-07-08T12:17:31.968Z,34.10
2023-07-08T12:20:04.725Z,34.30
2023-07-08T12:22:34.165Z,34.50
2023-07-08T12:25:06.686Z,34.50
2023-07-08T12:27:34.197Z,34.50
2023-07-08T12:30:03.924Z,34.60
2023-07-08T12:32:31.658Z,34.60
2023-07-08T12:34:59.537Z,34.50
2023-07-08T12:37:27.437Z,34.40
2023-07-08T12:39:56.452Z,34.60
2023-07-08T12:42:24.277Z,34.60
2023-07-08T12:44:52.252Z,34.60
2023-07-08T12:47:21.942Z,34.70
2023-07-08T12:49:50.342Z,34.80
2023-07-08T12:52:25.108Z,34.70
2023-07-08T12:54:52.977Z,34.90
2023-07-08T12:57:20.692Z,35.00
2023-07-08T12:59:48.549Z,35.20
2023-07-08T13:02:18.572Z,35.30
2023-07-08T13:04:48.343Z,35.30
2023-07-08T13:07:39.492Z,35.30
2023-07-08T13:10:10.152Z,35.60
2023-07-08T13:12:41.580Z,35.90
2023-07-08T13:15:18.814Z,36.10
2023-07-08T13:17:46.711Z,36.30
2023-07-08T13:20:18.981Z,36.40
2023-07-08T13:22:53.178Z,36.40
2023-07-08T13:25:27.498Z,36.60
2023-07-08T13:28:04.246Z,36.90
2023-07-08T13:30:33.002Z,37.30
2023-07-08T13:33:01.346Z,37.20
2023-07-08T13:35:40.052Z,37.40
2023-07-08T13:38:15.562Z,37.50
2023-07-08T13:40:48.706Z,37.70
2023-07-08T13:43:17.005Z,38.40
2023-07-08T13:45:49.095Z,39.20
2023-07-08T13:48:50.746Z,39.90
2023-07-08T13:51:21.669Z,40.30
2023-07-08T13:53:52.289Z,40.90
2023-07-08T13:56:28.505Z,41.30
2023-07-08T13:59:08.822Z,41.70
2023-07-08T14:01:39.600Z,41.80
2023-07-08T14:04:08.358Z,42.00
2023-07-08T14:06:39.945Z,42.30
2023-07-08T14:09:27.520Z,42.80
2023-07-08T14:11:55.743Z,43.00
2023-07-08T14:14:23.313Z,43.20
2023-07-08T14:16:54.103Z,43.50
2023-07-08T14:19:28.333Z,43.70
2023-07-08T14:21:58.493Z,43.00
2023-07-08T14:24:26.577Z,42.90
2023-07-08T14:26:55.031Z,42.70
2023-07-08T14:29:23.264Z,42.90
2023-07-08T14:31:51.132Z,43.30
2023-07-08T14:34:25.601Z,43.80
2023-07-08T14:36:53.773Z,44.10
2023-07-08T14:39:22.268Z,44.50
2023-07-08T14:41:51.306Z,44.80
2023-07-08T14:44:31.921Z,44.90
2023-07-08T14:46:59.685Z,45.10
2023-07-08T14:49:28.589Z,45.50
2023-07-08T14:51:56.161Z,45.70
2023-07-08T14:54:23.840Z,46.00
2023-07-08T14:56:51.645Z,46.10
2023-07-08T14:59:22.135Z,45.90
2023-07-08T15:01:49.922Z,45.60
2023-07-08T15:04:19.146Z,45.50
2023-07-08T15:06:47.589Z,45.20
2023-07-08T15:09:15.264Z,45.30
2023-07-08T15:11:43.593Z,45.60
2023-07-08T15:14:27.438Z,46.00
2023-07-08T15:16:55.517Z,46.00
2023-07-08T15:19:24.905Z,46.00
2023-07-08T15:21:52.836Z,46.10
2023-07-08T15:24:20.292Z,46.30
2023-07-08T15:26:48.568Z,46.50
2023-07-08T15:29:24.518Z,46.50
2023-07-08T15:31:52.435Z,46.70
2023-07-08T15:34:22.455Z,47.00
2023-07-08T15:36:50.981Z,47.10
2023-07-08T15:39:18.549Z,47.10
2023-07-08T15:41:46.143Z,47.10
2023-07-08T15:44:15.352Z,47.30
2023-07-08T15:46:49.916Z,47.50
2023-07-08T15:49:20.272Z,47.60
2023-07-08T15:51:50.119Z,47.60
2023-07-08T15:54:21.072Z,47.40
2023-07-08T15:56:52.241Z,47.00
2023-07-08T15:59:25.087Z,46.90
2023-07-08T16:01:53.369Z,46.50
2023-07-08T16:04:27.544Z,46.30
2023-07-08T16:06:55.515Z,46.60
2023-07-08T16:09:23.648Z,47.00
2023-07-08T16:11:52.129Z,47.10
2023-07-08T16:14:20.357Z,47.30
2023-07-08T16:16:48.469Z,47.50
2023-07-08T16:19:16.428Z,47.70
2023-07-08T16:21:44.268Z,47.60
2023-07-08T16:24:12.254Z,47.50
2023-07-08T16:26:40.762Z,47.20
2023-07-08T16:29:16.398Z,47.10
2023-07-08T16:31:43.928Z,47.00
2023-07-08T16:34:12.054Z,47.00
2023-07-08T16:36:39.957Z,47.00
2023-07-08T16:39:08.113Z,47.30
2023-07-08T16:41:37.424Z,47.50
2023-07-08T16:44:17.952Z,47.50
2023-07-08T16:46:45.966Z,47.60
2023-07-08T16:49:13.993Z,47.70
2023-07-08T16:51:41.905Z,47.70
2023-07-08T16:54:11.779Z,47.70
2023-07-08T16:56:41.171Z,47.50
2023-07-08T16:59:09.271Z,47.40
2023-07-08T17:01:37.037Z,47.30
2023-07-08T17:04:04.933Z,47.20
2023-07-08T17:06:32.868Z,47.20
2023-07-08T17:09:05.781Z,47.10
2023-07-08T17:11:33.636Z,46.90
2023-07-08T17:14:01.989Z,46.60
2023-07-08T17:16:34.148Z,46.40
2023-07-08T17:19:02.850Z,46.30
2023-07-08T17:21:30.359Z,46.10
2023-07-08T17:23:57.825Z,46.00
2023-07-08T17:26:25.114Z,46.00
2023-07-08T17:28:52.473Z,45.90
2023-07-08T17:33:58.181Z,44.50
2023-07-08T17:36:36.098Z,43.00
2023-07-08T17:39:07.906Z,41.50
2023-07-08T17:41:35.365Z,40.20
2023-07-08T17:44:02.721Z,39.00
2023-07-08T17:46:30.802Z,38.00
2023-07-08T17:49:00.074Z,37.40
2023-07-08T17:51:32.421Z,36.80
2023-07-08T17:53:59.832Z,36.30
2023-07-08T17:56:36.725Z,35.90
2023-07-08T17:59:05.428Z,35.60
2023-07-08T18:01:33.141Z,35.40
2023-07-08T18:04:00.586Z,35.20
2023-07-08T18:06:27.969Z,34.90
2023-07-08T18:08:55.273Z,34.70
2023-07-08T18:11:24.574Z,34.60
2023-07-08T18:13:52.999Z,34.50
2023-07-08T18:16:23.743Z,34.40
2023-07-08T18:18:51.947Z,34.10
2023-07-08T18:21:22.491Z,33.90
2023-07-08T18:23:52.922Z,33.70
2023-07-08T18:26:23.482Z,33.60
2023-07-08T18:28:51.624Z,33.30
2023-07-08T18:31:24.051Z,33.20
2023-07-08T18:33:51.867Z,33.10
2023-07-08T18:36:19.441Z,32.90
2023-07-08T18:38:47.321Z,32.70
2023-07-08T18:41:21.732Z,32.50
2023-07-08T18:43:50.236Z,32.40
2023-07-08T18:46:18.500Z,32.20
2023-07-08T18:48:46.048Z,32.10
2023-07-08T18:51:35.325Z,32.00
2023-07-08T18:54:03.056Z,31.90
2023-07-08T18:56:30.735Z,31.80
2023-07-08T18:58:58.618Z,31.60
2023-07-08T19:01:26.430Z,31.40
2023-07-08T19:03:54.816Z,31.10
2023-07-08T19:06:23.292Z,30.90
2023-07-08T19:08:50.702Z,30.80
2023-07-08T19:11:19.426Z,30.60
2023-07-08T19:13:47.286Z,30.60
2023-07-08T19:16:15.977Z,30.50
2023-07-08T19:18:44.666Z,30.40
2023-07-08T19:21:15.291Z,30.30
2023-07-08T19:23:46.675Z,30.20
2023-07-08T19:26:19.767Z,30.10
2023-07-08T19:28:47.304Z,30.10
2023-07-08T19:31:33.098Z,30.00
2023-07-08T19:34:06.450Z,29.80
2023-07-08T19:36:34.444Z,29.70
2023-07-08T19:39:02.319Z,29.50
2023-07-08T19:41:33.779Z,29.40
2023-07-08T19:44:10.109Z,29.30
2023-07-08T19:46:38.604Z,29.10
2023-07-08T19:49:05.941Z,28.90
2023-07-08T19:51:33.200Z,28.70
2023-07-08T19:54:00.577Z,28.40
2023-07-08T19:56:30.237Z,28.20
2023-07-08T19:58:57.811Z,28.10
2023-07-08T20:01:25.193Z,28.00
2023-07-08T20:03:52.760Z,28.00
2023-07-08T20:06:27.256Z,28.00
2023-07-08T20:08:56.187Z,28.00
2023-07-08T20:11:23.785Z,27.90
2023-07-08T20:13:51.540Z,27.70
2023-07-08T20:16:27.397Z,27.60
2023-07-08T20:18:57.508Z,27.60
2023-07-08T20:21:26.582Z,27.50
2023-07-08T20:23:54.865Z,27.40
2023-07-08T20:26:32.738Z,27.20
2023-07-08T20:29:00.522Z,27.00
2023-07-08T20:31:31.697Z,26.70
2023-07-08T20:33:59.814Z,26.50
2023-07-08T20:36:28.428Z,26.30
2023-07-08T20:38:55.882Z,26.10
2023-07-08T20:41:23.531Z,26.20
2023-07-08T20:43:51.523Z,26.10
2023-07-08T20:46:25.263Z,26.00
2023-07-08T20:48:55.888Z,26.00
2023-07-08T20:51:25.211Z,25.90
2023-07-08T20:53:56.634Z,25.90
2023-07-08T20:56:32.603Z,26.00
2023-07-08T20:59:04.406Z,26.00
2023-07-08T21:01:33.499Z,26.00
2023-07-08T21:04:04.331Z,25.90
2023-07-08T21:06:33.748Z,25.90
2023-07-08T21:09:03.348Z,25.90
2023-07-08T21:11:31.865Z,25.80
2023-07-08T21:14:03.854Z,25.70
2023-07-08T21:16:32.325Z,25.70
2023-07-08T21:19:01.520Z,25.60
2023-07-08T21:21:29.220Z,25.50
2023-07-08T21:23:56.649Z,25.60
2023-07-08T21:26:28.723Z,25.60
2023-07-08T21:29:02.765Z,25.60
2023-07-08T21:31:31.986Z,25.50
2023-07-08T21:34:02.306Z,25.40
2023-07-08T21:36:35.032Z,25.30
2023-07-08T21:39:35.875Z,25.00
2023-07-08T21:42:05.367Z,25.00
2023-07-08T21:44:34.268Z,25.00
2023-07-08T21:47:01.936Z,25.00
2023-07-08T21:49:30.356Z,25.00
2023-07-08T21:51:58.467Z,25.00
2023-07-08T21:54:26.673Z,24.80
2023-07-08T21:56:54.140Z,24.80
2023-07-08T21:59:27.512Z,24.60
2023-07-08T22:01:56.812Z,24.50
2023-07-08T22:04:25.549Z,24.40
2023-07-08T22:06:53.697Z,24.30
2023-07-08T22:09:21.452Z,24.00
2023-07-08T22:11:50.448Z,24.10
2023-07-08T22:14:20.159Z,24.10
2023-07-08T22:17:01.290Z,24.10
2023-07-08T22:19:34.119Z,24.00
2023-07-08T22:22:02.407Z,23.90
2023-07-08T22:24:33.987Z,23.80
2023-07-08T22:27:01.692Z,23.70
2023-07-08T22:29:29.603Z,23.60
2023-07-08T22:31:58.030Z,23.50
2023-07-08T22:34:25.658Z,23.40
2023-07-08T22:36:52.988Z,23.30
2023-07-08T22:39:20.524Z,23.10
2023-07-08T22:41:53.569Z,23.20
2023-07-08T22:44:23.553Z,23.20
2023-07-08T22:46:51.019Z,23.20
2023-07-08T22:49:25.558Z,23.20
2023-07-08T22:51:56.808Z,23.10
2023-07-08T22:54:26.495Z,23.10
2023-07-08T22:56:55.612Z,23.00
2023-07-08T22:59:24.571Z,23.00
2023-07-08T23:01:52.183Z,23.00
2023-07-08T23:04:19.466Z,23.00
2023-07-08T23:06:47.896Z,23.00
2023-07-08T23:09:18.817Z,22.90
2023-07-08T23:11:46.279Z,22.90
2023-07-08T23:14:14.023Z,22.90
2023-07-08T23:16:41.385Z,22.90
2023-07-08T23:19:12.508Z,22.90
2023-07-08T23:21:40.664Z,22.90
2023-07-08T23:24:09.142Z,22.90
2023-07-08T23:26:38.325Z,22.90
2023-07-08T23:29:07.127Z,22.90
2023-07-08T23:31:37.262Z,23.00
2023-07-08T23:34:07.435Z,23.00
2023-07-08T23:36:40.196Z,23.00
2023-07-08T23:39:21.667Z,23.00
2023-07-08T23:41:52.153Z,22.90
2023-07-08T23:44:21.792Z,22.90
2023-07-08T23:46:56.464Z,22.90
2023-07-08T23:49:26.628Z,22.80
2023-07-08T23:51:56.150Z,22.70
2023-07-08T23:54:35.185Z,22.70
2023-07-08T23:57:08.092Z,22.70
2023-07-08T23:59:40.501Z,22.60
